createdAt,value
2022-10-19T11:31:29.748Z,1021.46
2022-10-19T11:31:59.159Z,1021.44
2022-10-19T11:32:29.787Z,1021.46
2022-10-19T11:33:00.205Z,1021.49
2022-10-19T11:33:31.239Z,1021.46
2022-10-19T11:34:02.561Z,1021.44
2022-10-19T11:34:32.460Z,1021.43
2022-10-19T11:35:03.332Z,1021.41
2022-10-19T11:35:34.415Z,1021.40
2022-10-19T11:36:04.876Z,1021.39
2022-10-19T11:36:35.864Z,1021.38
2022-10-19T11:37:06.852Z,1021.37
2022-10-19T11:37:45.664Z,1021.36
2022-10-19T11:38:20.334Z,1021.35
2022-10-19T11:38:40.328Z,1021.37
2022-10-19T11:39:10.227Z,1021.35
2022-10-19T11:39:41.185Z,1021.35
2022-10-19T11:40:12.128Z,1021.35
2022-10-19T11:40:59.643Z,1021.36
2022-10-19T11:41:18.871Z,1021.36
2022-10-19T11:41:44.314Z,1021.36
2022-10-19T11:42:15.254Z,1021.36
2022-10-19T11:43:17.144Z,1021.38
2022-10-19T11:43:48.238Z,1021.38
2022-10-19T11:44:18.965Z,1021.34
2022-10-19T11:44:49.457Z,1021.34
2022-10-19T11:45:20.368Z,1021.31
2022-10-19T11:45:51.253Z,1021.31
2022-10-19T11:46:22.135Z,1021.32
2022-10-19T11:46:53.322Z,1021.29
2022-10-19T11:47:23.711Z,1021.27
2022-10-19T11:47:54.615Z,1021.26
2022-10-19T11:48:25.574Z,1021.26
2022-10-19T11:48:56.528Z,1021.25
2022-10-19T11:49:27.485Z,1021.23
2022-10-19T11:49:58.682Z,1021.24
2022-10-19T11:50:31.186Z,1021.21
2022-10-19T11:51:16.995Z,1021.21
2022-10-19T11:51:30.650Z,1021.20
2022-10-19T11:52:01.546Z,1021.20
2022-10-19T11:52:32.862Z,1021.19
2022-10-19T11:53:03.175Z,1021.19
2022-10-19T11:53:33.642Z,1021.20
2022-10-19T11:54:04.558Z,1021.20
2022-10-19T11:54:35.524Z,1021.19
2022-10-19T11:55:06.394Z,1021.20
2022-10-19T11:55:37.432Z,1021.21
2022-10-19T11:56:08.078Z,1021.17
2022-10-19T11:56:58.125Z,1021.21
2022-10-19T11:57:11.643Z,1021.20
2022-10-19T11:57:40.313Z,1021.21
2022-10-19T11:58:11.405Z,1021.21
2022-10-19T11:58:42.026Z,1021.21
2022-10-19T11:59:43.173Z,1021.22
2022-10-19T12:00:15.245Z,1021.25
2022-10-19T12:00:45.058Z,1021.24
2022-10-19T12:01:16.230Z,1021.23
2022-10-19T12:01:46.737Z,1021.23
2022-10-19T12:02:17.338Z,1021.24
2022-10-19T12:02:47.836Z,1021.24
2022-10-19T12:03:18.727Z,1021.23
2022-10-19T12:03:49.676Z,1021.23
2022-10-19T12:04:20.839Z,1021.23
2022-10-19T12:04:53.220Z,1021.21
2022-10-19T12:05:22.182Z,1021.21
2022-10-19T12:05:53.162Z,1021.19
2022-10-19T12:06:24.306Z,1021.18
2022-10-19T12:06:54.766Z,1021.16
2022-10-19T12:07:25.896Z,1021.12
2022-10-19T12:07:56.367Z,1021.13
2022-10-19T12:08:27.380Z,1021.10
2022-10-19T12:08:57.992Z,1021.08
2022-10-19T12:09:28.487Z,1021.07
2022-10-19T12:09:59.447Z,1021.05
2022-10-19T12:10:30.543Z,1021.04
2022-10-19T12:11:01.043Z,1021.03
2022-10-19T12:11:31.944Z,1021.03
2022-10-19T12:12:03.027Z,1021.01
2022-10-19T12:12:33.911Z,1020.99
2022-10-19T12:13:04.184Z,1020.99
2022-10-19T12:13:35.334Z,1020.98
2022-10-19T12:14:06.040Z,1020.99
2022-10-19T12:14:36.380Z,1021.00
2022-10-19T12:15:07.242Z,1020.98
2022-10-19T12:15:38.193Z,1020.99
2022-10-19T12:16:09.041Z,1020.98
2022-10-19T12:16:40.187Z,1020.96
2022-10-19T12:17:10.709Z,1020.96
2022-10-19T12:17:41.214Z,1020.95
2022-10-19T12:18:12.131Z,1020.94
2022-10-19T12:18:43.072Z,1020.92
2022-10-19T12:19:13.958Z,1020.92
2022-10-19T12:19:45.120Z,1020.89
2022-10-19T12:20:18.895Z,1020.89
2022-10-19T12:20:46.326Z,1020.90
2022-10-19T12:21:17.311Z,1020.90
2022-10-19T12:21:48.202Z,1020.90
2022-10-19T12:22:19.168Z,1020.90
2022-10-19T12:22:50.326Z,1020.90
2022-10-19T12:23:20.736Z,1020.90
2022-10-19T12:23:51.693Z,1020.88
2022-10-19T12:24:22.673Z,1020.88
2022-10-19T12:24:53.592Z,1020.88
2022-10-19T12:25:24.562Z,1020.87
2022-10-19T12:25:55.732Z,1020.87
2022-10-19T12:26:26.231Z,1020.86
2022-10-19T12:26:56.729Z,1020.86
2022-10-19T12:27:27.717Z,1020.86
2022-10-19T12:27:58.202Z,1020.84
2022-10-19T12:28:29.242Z,1020.84
2022-10-19T12:28:59.930Z,1020.83
2022-10-19T12:29:30.398Z,1020.83
2022-10-19T12:30:01.373Z,1020.81
2022-10-19T12:30:32.332Z,1020.80
2022-10-19T12:31:03.212Z,1020.80
2022-10-19T12:31:34.189Z,1020.79
2022-10-19T12:32:05.094Z,1020.77
2022-10-19T12:32:35.584Z,1020.75
2022-10-19T12:33:06.520Z,1020.75
2022-10-19T12:33:37.479Z,1020.74
2022-10-19T12:34:08.418Z,1020.72
2022-10-19T12:34:39.295Z,1020.73
2022-10-19T12:35:10.541Z,1020.73
2022-10-19T12:35:41.032Z,1020.72
2022-10-19T12:36:11.918Z,1020.73
2022-10-19T12:36:42.844Z,1020.74
2022-10-19T12:37:13.757Z,1020.74
2022-10-19T12:37:44.718Z,1020.74
2022-10-19T12:38:15.853Z,1020.74
2022-10-19T12:38:49.377Z,1020.74
2022-10-19T12:39:17.012Z,1020.74
2022-10-19T12:39:47.996Z,1020.74
2022-10-19T12:40:18.851Z,1020.75
2022-10-19T12:40:49.820Z,1020.74
2022-10-19T12:41:20.943Z,1020.73
2022-10-19T12:41:51.403Z,1020.72
2022-10-19T12:42:22.407Z,1020.71
2022-10-19T12:42:52.868Z,1020.71
2022-10-19T12:43:23.831Z,1020.72
2022-10-19T12:43:54.691Z,1020.71
2022-10-19T12:44:25.879Z,1020.68
2022-10-19T12:44:58.668Z,1020.67
2022-10-19T12:45:26.984Z,1020.68
2022-10-19T12:45:57.950Z,1020.65
2022-10-19T12:46:28.909Z,1020.64
2022-10-19T12:47:00.855Z,1020.64
2022-10-19T12:47:30.781Z,1020.62
2022-10-19T12:48:01.232Z,1020.59
2022-10-19T12:48:32.233Z,1020.59
2022-10-19T12:49:03.131Z,1020.58
2022-10-19T12:50:15.288Z,1020.55
2022-10-19T12:50:45.737Z,1020.54
2022-10-19T12:51:16.258Z,1020.55
2022-10-19T12:51:46.851Z,1020.53
2022-10-19T12:52:17.309Z,1020.52
2022-10-19T12:52:48.542Z,1020.50
2022-10-19T12:53:19.382Z,1020.50
2022-10-19T12:53:49.950Z,1020.50
2022-10-19T12:54:20.900Z,1020.48
2022-10-19T12:54:51.842Z,1020.48
2022-10-19T12:55:22.788Z,1020.45
2022-10-19T12:55:53.745Z,1020.44
2022-10-19T12:56:24.856Z,1020.44
2022-10-19T12:56:55.311Z,1020.42
2022-10-19T12:57:26.466Z,1020.43
2022-10-19T12:57:56.930Z,1020.42
2022-10-19T12:58:27.887Z,1020.41
2022-10-19T12:58:58.865Z,1020.41
2022-10-19T12:59:30.035Z,1020.41
2022-10-19T13:00:00.489Z,1020.40
2022-10-19T13:00:31.512Z,1020.41
2022-10-19T13:01:02.146Z,1020.38
2022-10-19T13:01:32.943Z,1020.38
2022-10-19T13:02:03.399Z,1020.36
2022-10-19T13:02:34.552Z,1020.35
2022-10-19T13:03:05.008Z,1020.36
2022-10-19T13:03:35.969Z,1020.35
2022-10-19T13:04:07.050Z,1020.34
2022-10-19T13:04:37.573Z,1020.33
2022-10-19T13:05:08.050Z,1020.33
2022-10-19T13:05:39.104Z,1020.31
2022-10-19T13:06:09.563Z,1020.30
2022-10-19T13:06:40.459Z,1020.31
2022-10-19T13:07:11.417Z,1020.30
2022-10-19T13:07:42.442Z,1020.29
2022-10-19T13:08:14.553Z,1020.29
2022-10-19T13:08:44.045Z,1020.28
2022-10-19T13:09:14.561Z,1020.28
2022-10-19T13:09:45.525Z,1020.26
2022-10-19T13:10:16.429Z,1020.27
2022-10-19T13:10:47.368Z,1020.28
2022-10-19T13:11:18.256Z,1020.27
2022-10-19T13:11:49.393Z,1020.26
2022-10-19T13:12:33.046Z,1020.26
2022-10-19T13:12:51.801Z,1020.26
2022-10-19T13:13:21.681Z,1020.26
2022-10-19T13:13:52.564Z,1020.26
2022-10-19T13:14:23.726Z,1020.26
2022-10-19T13:14:54.188Z,1020.25
2022-10-19T13:15:25.090Z,1020.25
2022-10-19T13:15:56.028Z,1020.25
2022-10-19T13:16:26.978Z,1020.25
2022-10-19T13:16:57.987Z,1020.23
2022-10-19T13:17:33.149Z,1020.24
2022-10-19T13:18:00.109Z,1020.22
2022-10-19T13:18:29.491Z,1020.24
2022-10-19T13:19:00.466Z,1020.25
2022-10-19T13:19:31.425Z,1020.23
2022-10-19T13:20:02.381Z,1020.23
2022-10-19T13:20:33.580Z,1020.24
2022-10-19T13:21:03.991Z,1020.24
2022-10-19T13:21:34.954Z,1020.23
2022-10-19T13:22:05.942Z,1020.23
2022-10-19T13:22:37.342Z,1020.22
2022-10-19T13:23:07.455Z,1020.21
2022-10-19T13:23:38.557Z,1020.18
2022-10-19T13:24:08.982Z,1020.16
2022-10-19T13:25:10.885Z,1020.15
2022-10-19T13:25:41.907Z,1020.14
2022-10-19T13:26:12.865Z,1020.13
2022-10-19T13:26:43.997Z,1020.11
2022-10-19T13:27:14.506Z,1020.11
2022-10-19T13:27:44.947Z,1020.08
2022-10-19T13:28:15.853Z,1020.09
2022-10-19T13:28:46.794Z,1020.08
2022-10-19T13:29:17.907Z,1020.08
2022-10-19T13:29:48.583Z,1020.08
2022-10-19T13:30:19.122Z,1020.07
2022-10-19T13:30:49.774Z,1020.07
2022-10-19T13:31:20.268Z,1020.09
2022-10-19T13:31:51.228Z,1020.08
2022-10-19T13:32:22.104Z,1020.07
2022-10-19T13:32:53.261Z,1020.07
2022-10-19T13:33:23.774Z,1020.07
2022-10-19T13:33:54.632Z,1020.07
2022-10-19T13:34:25.635Z,1020.08
2022-10-19T13:34:56.628Z,1020.09
2022-10-19T13:35:27.516Z,1020.11
2022-10-19T13:35:58.591Z,1020.10
2022-10-19T13:36:29.053Z,1020.10
2022-10-19T13:37:00.267Z,1020.10
2022-10-19T13:37:34.588Z,1020.09
2022-10-19T13:38:01.286Z,1020.07
2022-10-19T13:38:32.316Z,1020.07
2022-10-19T13:39:03.120Z,1020.06
2022-10-19T13:39:33.602Z,1020.05
2022-10-19T13:40:04.518Z,1020.04
2022-10-19T13:40:35.417Z,1020.02
2022-10-19T13:41:06.470Z,1020.03
2022-10-19T13:41:36.940Z,1020.05
2022-10-19T13:42:08.032Z,1020.04
2022-10-19T13:42:38.770Z,1020.05
2022-10-19T13:43:09.286Z,1020.02
2022-10-19T13:43:40.462Z,1020.01
2022-10-19T13:44:10.938Z,1020.00
2022-10-19T13:44:41.948Z,1020.00
2022-10-19T13:45:13.254Z,1019.98
2022-10-19T13:45:44.772Z,1019.98
2022-10-19T13:46:14.053Z,1019.96
2022-10-19T13:46:45.042Z,1019.95
2022-10-19T13:47:15.548Z,1019.95
2022-10-19T13:47:46.620Z,1019.95
2022-10-19T13:48:17.341Z,1019.94
2022-10-19T13:48:47.781Z,1019.93
2022-10-19T13:49:18.901Z,1019.94
2022-10-19T13:49:49.406Z,1019.93
2022-10-19T13:50:20.357Z,1019.92
2022-10-19T13:50:51.247Z,1019.93
2022-10-19T13:51:22.323Z,1019.92
2022-10-19T13:51:52.805Z,1019.93
2022-10-19T13:52:23.716Z,1019.92
2022-10-19T13:52:54.608Z,1019.93
2022-10-19T13:53:25.745Z,1019.92
2022-10-19T13:53:56.205Z,1019.91
2022-10-19T13:54:27.346Z,1019.91
2022-10-19T13:54:57.853Z,1019.94
2022-10-19T13:55:28.338Z,1019.95
2022-10-19T13:55:59.301Z,1019.95
2022-10-19T13:56:30.310Z,1019.94
2022-10-19T13:57:00.905Z,1019.94
2022-10-19T13:57:31.874Z,1019.90
2022-10-19T13:58:02.821Z,1019.90
2022-10-19T13:58:33.732Z,1019.87
2022-10-19T13:59:03.703Z,1019.86
2022-10-19T13:59:34.640Z,1019.86
2022-10-19T14:00:05.675Z,1019.84
2022-10-19T14:00:36.518Z,1019.85
2022-10-19T14:01:06.907Z,1019.82
2022-10-19T14:01:37.938Z,1019.80
2022-10-19T14:02:08.390Z,1019.80
2022-10-19T14:02:39.287Z,1019.81
2022-10-19T14:03:11.757Z,1019.80
2022-10-19T14:03:41.271Z,1019.79
2022-10-19T14:04:11.717Z,1019.78
2022-10-19T14:04:42.694Z,1019.77
2022-10-19T14:05:13.691Z,1019.78
2022-10-19T14:05:44.563Z,1019.77
2022-10-19T14:06:15.517Z,1019.76
2022-10-19T14:06:46.643Z,1019.76
2022-10-19T14:07:17.093Z,1019.74
2022-10-19T14:07:47.989Z,1019.74
2022-10-19T14:08:19.143Z,1019.73
2022-10-19T14:08:49.717Z,1019.73
2022-10-19T14:09:20.481Z,1019.72
2022-10-19T14:09:51.634Z,1019.71
2022-10-19T14:10:25.161Z,1019.70
2022-10-19T14:11:01.500Z,1019.71
2022-10-19T14:11:25.083Z,1019.72
2022-10-19T14:11:54.706Z,1019.71
2022-10-19T14:12:25.172Z,1019.70
2022-10-19T14:12:56.166Z,1019.69
2022-10-19T14:13:26.653Z,1019.69
2022-10-19T14:13:57.658Z,1019.70
2022-10-19T14:14:28.108Z,1019.68
2022-10-19T14:14:59.252Z,1019.67
2022-10-19T14:15:29.723Z,1019.65
2022-10-19T14:16:00.709Z,1019.63
2022-10-19T14:16:31.178Z,1019.62
2022-10-19T14:17:03.951Z,1019.61
2022-10-19T14:17:33.568Z,1019.60
2022-10-19T14:18:06.024Z,1019.61
2022-10-19T14:18:34.217Z,1019.63
2022-10-19T14:19:05.213Z,1019.63
2022-10-19T14:19:35.649Z,1019.59
2022-10-19T14:20:06.500Z,1019.58
2022-10-19T14:20:37.547Z,1019.57
2022-10-19T14:21:08.149Z,1019.54
2022-10-19T14:21:38.595Z,1019.52
2022-10-19T14:22:09.573Z,1019.54
2022-10-19T14:22:40.650Z,1019.52
2022-10-19T14:23:11.180Z,1019.53
2022-10-19T14:23:42.344Z,1019.54
2022-10-19T14:24:12.861Z,1019.51
2022-10-19T14:24:43.782Z,1019.51
2022-10-19T14:25:14.765Z,1019.50
2022-10-19T14:25:45.713Z,1019.50
2022-10-19T14:26:16.613Z,1019.51
2022-10-19T14:26:47.745Z,1019.49
2022-10-19T14:27:18.220Z,1019.49
2022-10-19T14:27:49.149Z,1019.46
2022-10-19T14:28:20.060Z,1019.49
2022-10-19T14:28:50.975Z,1019.49
2022-10-19T14:29:21.866Z,1019.49
2022-10-19T14:29:53.073Z,1019.49
2022-10-19T14:30:23.574Z,1019.49
2022-10-19T14:30:54.010Z,1019.50
2022-10-19T14:31:24.994Z,1019.52
2022-10-19T14:31:55.935Z,1019.51
2022-10-19T14:32:26.978Z,1019.53
2022-10-19T14:33:01.222Z,1019.52
2022-10-19T14:33:27.978Z,1019.53
2022-10-19T14:33:58.837Z,1019.53
2022-10-19T14:34:29.770Z,1019.54
2022-10-19T14:35:00.934Z,1019.53
2022-10-19T14:35:31.422Z,1019.52
2022-10-19T14:36:02.550Z,1019.53
2022-10-19T14:36:33.029Z,1019.52
2022-10-19T14:37:05.942Z,1019.54
2022-10-19T14:37:35.134Z,1019.53
2022-10-19T14:38:05.814Z,1019.52
2022-10-19T14:38:36.795Z,1019.52
2022-10-19T14:39:07.867Z,1019.51
2022-10-19T14:39:38.338Z,1019.51
2022-10-19T14:40:09.250Z,1019.49
2022-10-19T14:40:40.215Z,1019.50
2022-10-19T14:41:11.121Z,1019.50
2022-10-19T14:41:41.999Z,1019.49
2022-10-19T14:42:13.137Z,1019.46
2022-10-19T14:42:43.630Z,1019.46
2022-10-19T14:43:14.094Z,1019.44
2022-10-19T14:43:45.093Z,1019.45
2022-10-19T14:44:15.576Z,1019.42
2022-10-19T14:44:46.444Z,1019.44
2022-10-19T14:45:17.599Z,1019.44
2022-10-19T14:45:48.058Z,1019.45
2022-10-19T14:46:18.970Z,1019.45
2022-10-19T14:46:49.919Z,1019.46
2022-10-19T14:47:20.816Z,1019.46
2022-10-19T14:47:51.799Z,1019.44
2022-10-19T14:48:22.866Z,1019.45
2022-10-19T14:48:53.332Z,1019.45
2022-10-19T14:49:24.215Z,1019.44
2022-10-19T14:49:55.203Z,1019.44
2022-10-19T14:50:26.212Z,1019.44
2022-10-19T14:50:56.689Z,1019.43
2022-10-19T14:51:27.849Z,1019.44
2022-10-19T14:51:58.276Z,1019.44
2022-10-19T14:52:29.204Z,1019.44
2022-10-19T14:53:00.156Z,1019.41
2022-10-19T14:53:31.124Z,1019.43
2022-10-19T14:54:02.097Z,1019.41
2022-10-19T14:54:33.244Z,1019.43
2022-10-19T14:55:03.749Z,1019.43
2022-10-19T14:55:34.659Z,1019.44
2022-10-19T14:56:05.662Z,1019.44
2022-10-19T14:56:36.629Z,1019.45
2022-10-19T14:57:07.490Z,1019.48
2022-10-19T14:57:38.647Z,1019.48
2022-10-19T14:58:09.104Z,1019.47
2022-10-19T14:58:40.057Z,1019.47
2022-10-19T14:59:11.270Z,1019.47
2022-10-19T15:00:12.728Z,1019.48
2022-10-19T15:00:43.417Z,1019.47
2022-10-19T15:01:13.929Z,1019.48
2022-10-19T15:01:44.497Z,1019.47
2022-10-19T15:02:15.011Z,1019.46
2022-10-19T15:02:45.981Z,1019.45
2022-10-19T15:03:16.877Z,1019.43
2022-10-19T15:03:48.070Z,1019.41
2022-10-19T15:04:18.540Z,1019.38
2022-10-19T15:04:49.435Z,1019.36
2022-10-19T15:05:20.395Z,1019.38
2022-10-19T15:05:51.350Z,1019.37
2022-10-19T15:06:22.297Z,1019.36
2022-10-19T15:06:53.552Z,1019.36
2022-10-19T15:07:24.131Z,1019.36
2022-10-19T15:07:55.053Z,1019.35
2022-10-19T15:08:26.021Z,1019.33
2022-10-19T15:08:56.548Z,1019.33
2022-10-19T15:09:37.507Z,1019.32
2022-10-19T15:09:58.416Z,1019.31
2022-10-19T15:10:32.333Z,1019.31
2022-10-19T15:10:59.750Z,1019.31
2022-10-19T15:11:30.702Z,1019.33
2022-10-19T15:12:01.909Z,1019.32
2022-10-19T15:12:32.443Z,1019.32
2022-10-19T15:13:03.189Z,1019.33
2022-10-19T15:13:34.014Z,1019.32
2022-10-19T15:14:04.905Z,1019.33
2022-10-19T15:14:35.780Z,1019.33
2022-10-19T15:15:06.995Z,1019.33
2022-10-19T15:15:37.490Z,1019.33
2022-10-19T15:16:08.385Z,1019.32
2022-10-19T15:16:39.437Z,1019.32
2022-10-19T15:17:09.907Z,1019.32
2022-10-19T15:17:40.851Z,1019.31
2022-10-19T15:18:25.071Z,1019.30
2022-10-19T15:18:49.238Z,1019.28
2022-10-19T15:19:13.219Z,1019.30
2022-10-19T15:19:44.132Z,1019.27
2022-10-19T15:20:17.024Z,1019.26
2022-10-19T15:20:55.195Z,1019.26
2022-10-19T15:21:17.628Z,1019.23
2022-10-19T15:21:47.045Z,1019.23
2022-10-19T15:22:18.069Z,1019.23
2022-10-19T15:22:49.050Z,1019.21
2022-10-19T15:23:20.197Z,1019.20
2022-10-19T15:23:50.662Z,1019.20
2022-10-19T15:24:21.582Z,1019.19
2022-10-19T15:24:52.467Z,1019.19
2022-10-19T15:25:23.378Z,1019.17
2022-10-19T15:25:54.409Z,1019.18
2022-10-19T15:26:25.064Z,1019.17
2022-10-19T15:27:08.696Z,1019.15
2022-10-19T15:27:27.451Z,1019.15
2022-10-19T15:27:57.402Z,1019.18
2022-10-19T15:28:28.287Z,1019.15
2022-10-19T15:28:59.427Z,1019.17
2022-10-19T15:29:29.882Z,1019.16
2022-10-19T15:30:00.842Z,1019.14
2022-10-19T15:30:31.419Z,1019.14
2022-10-19T15:31:01.894Z,1019.14
2022-10-19T15:31:32.788Z,1019.15
2022-10-19T15:32:03.921Z,1019.14
2022-10-19T15:32:34.771Z,1019.14
2022-10-19T15:33:04.879Z,1019.15
2022-10-19T15:33:35.846Z,1019.13
2022-10-19T15:34:06.800Z,1019.16
2022-10-19T15:34:37.717Z,1019.16
2022-10-19T15:35:11.935Z,1019.15
2022-10-19T15:35:39.569Z,1019.15
2022-10-19T15:36:10.588Z,1019.16
2022-10-19T15:36:41.157Z,1019.15
2022-10-19T15:37:12.931Z,1019.15
2022-10-19T15:37:42.457Z,1019.14
2022-10-19T15:38:13.520Z,1019.14
2022-10-19T15:38:43.986Z,1019.14
2022-10-19T15:39:24.606Z,1019.13
2022-10-19T15:39:47.055Z,1019.12
2022-10-19T15:40:16.496Z,1019.11
2022-10-19T15:40:47.596Z,1019.09
2022-10-19T15:41:18.053Z,1019.09
2022-10-19T15:41:49.007Z,1019.06
2022-10-19T15:42:19.879Z,1019.03
2022-10-19T15:42:50.840Z,1019.04
2022-10-19T15:43:21.797Z,1019.01
2022-10-19T15:43:52.870Z,1019.00
2022-10-19T15:44:23.311Z,1019.00
2022-10-19T15:44:54.263Z,1018.99
2022-10-19T15:45:25.154Z,1018.98
2022-10-19T15:45:56.074Z,1018.99
2022-10-19T15:46:27.086Z,1019.00
2022-10-19T15:46:57.737Z,1019.01
2022-10-19T15:47:28.204Z,1018.99
2022-10-19T15:47:59.136Z,1019.00
2022-10-19T15:48:30.102Z,1019.01
2022-10-19T15:49:01.062Z,1019.02
2022-10-19T15:49:32.009Z,1019.02
2022-10-19T15:50:03.175Z,1019.05
2022-10-19T15:50:33.634Z,1019.06
2022-10-19T15:51:04.581Z,1019.07
2022-10-19T15:51:35.063Z,1019.05
2022-10-19T15:52:06.007Z,1019.06
2022-10-19T15:52:36.880Z,1019.07
2022-10-19T15:53:08.069Z,1019.08
2022-10-19T15:53:38.514Z,1019.09
2022-10-19T15:54:09.474Z,1019.09
2022-10-19T15:54:40.369Z,1019.09
2022-10-19T15:55:11.327Z,1019.09
2022-10-19T15:55:42.282Z,1019.08
2022-10-19T15:56:15.064Z,1019.08
2022-10-19T15:56:43.934Z,1019.07
2022-10-19T15:57:14.894Z,1019.07
2022-10-19T15:57:45.861Z,1019.06
2022-10-19T15:58:16.764Z,1019.06
2022-10-19T15:58:47.645Z,1019.04
2022-10-19T15:59:18.841Z,1019.04
2022-10-19T15:59:49.311Z,1019.02
2022-10-19T16:00:20.302Z,1019.04
2022-10-19T16:00:51.287Z,1019.03
2022-10-19T16:01:22.238Z,1019.04
2022-10-19T16:01:56.119Z,1019.03
2022-10-19T16:02:25.823Z,1019.05
2022-10-19T16:02:54.835Z,1019.03
2022-10-19T16:03:25.796Z,1019.04
2022-10-19T16:03:56.761Z,1019.04
2022-10-19T16:04:27.742Z,1019.04
2022-10-19T16:04:58.756Z,1019.06
2022-10-19T16:05:29.428Z,1019.06
2022-10-19T16:05:59.922Z,1019.07
2022-10-19T16:06:30.805Z,1019.05
2022-10-19T16:07:01.731Z,1019.05
2022-10-19T16:07:32.899Z,1019.05
2022-10-19T16:08:03.263Z,1019.05
2022-10-19T16:08:34.419Z,1019.10
2022-10-19T16:09:05.312Z,1019.09
2022-10-19T16:09:36.013Z,1019.09
2022-10-19T16:10:06.877Z,1019.07
2022-10-19T16:10:37.737Z,1019.07
2022-10-19T16:11:08.724Z,1019.07
2022-10-19T16:11:39.800Z,1019.07
2022-10-19T16:12:10.249Z,1019.07
2022-10-19T16:12:41.213Z,1019.03
2022-10-19T16:13:12.185Z,1019.04
2022-10-19T16:13:43.063Z,1019.05
2022-10-19T16:14:14.104Z,1019.06
2022-10-19T16:14:44.769Z,1019.04
2022-10-19T16:15:15.232Z,1019.05
2022-10-19T16:15:50.022Z,1019.03
2022-10-19T16:16:18.296Z,1019.01
2022-10-19T16:16:47.773Z,1019.00
2022-10-19T16:17:18.748Z,1018.97
2022-10-19T16:17:49.876Z,1018.98
2022-10-19T16:18:20.353Z,1018.97
2022-10-19T16:18:51.328Z,1018.97
2022-10-19T16:19:22.393Z,1018.96
2022-10-19T16:19:52.928Z,1018.97
2022-10-19T16:20:23.529Z,1018.97
2022-10-19T16:20:54.145Z,1018.97
2022-10-19T16:21:24.639Z,1018.97
2022-10-19T16:21:55.596Z,1018.98
2022-10-19T16:22:26.555Z,1018.96
2022-10-19T16:22:57.532Z,1018.99
2022-10-19T16:23:28.280Z,1019.01
2022-10-19T16:23:58.814Z,1018.99
2022-10-19T16:24:29.244Z,1018.99
2022-10-19T16:25:00.257Z,1018.99
2022-10-19T16:25:30.700Z,1018.99
2022-10-19T16:26:01.708Z,1018.99
2022-10-19T16:26:32.407Z,1018.97
2022-10-19T16:27:02.910Z,1018.99
2022-10-19T16:27:34.175Z,1019.00
2022-10-19T16:28:04.799Z,1018.98
2022-10-19T16:28:35.762Z,1018.98
2022-10-19T16:29:06.779Z,1018.99
2022-10-19T16:29:37.911Z,1019.00
2022-10-19T16:30:08.444Z,1018.98
2022-10-19T16:30:38.943Z,1019.00
2022-10-19T16:31:09.493Z,1018.99
2022-10-19T16:31:40.204Z,1019.01
2022-10-19T16:32:10.712Z,1018.99
2022-10-19T16:33:11.797Z,1019.01
2022-10-19T16:33:42.336Z,1019.01
2022-10-19T16:34:13.113Z,1019.02
2022-10-19T16:34:44.127Z,1019.03
2022-10-19T16:35:14.545Z,1019.02
2022-10-19T16:35:45.692Z,1019.02
2022-10-19T16:36:16.154Z,1019.03
2022-10-19T16:36:47.146Z,1019.03
2022-10-19T16:37:18.101Z,1019.02
2022-10-19T16:37:49.050Z,1019.02
2022-10-19T16:38:20.074Z,1019.01
2022-10-19T16:38:50.825Z,1019.01
2022-10-19T16:39:21.367Z,1019.02
2022-10-19T16:39:51.892Z,1019.00
2022-10-19T16:40:22.407Z,1018.99
2022-10-19T16:40:53.341Z,1019.00
2022-10-19T16:41:24.282Z,1018.99
2022-10-19T16:41:55.501Z,1018.97
2022-10-19T16:42:29.626Z,1018.96
2022-10-19T16:42:56.619Z,1018.96
2022-10-19T16:43:27.138Z,1018.96
2022-10-19T16:43:57.947Z,1018.96
2022-10-19T16:44:28.481Z,1018.95
2022-10-19T16:44:59.161Z,1018.93
2022-10-19T16:45:29.700Z,1018.93
2022-10-19T16:46:00.219Z,1018.93
2022-10-19T16:46:31.175Z,1018.93
2022-10-19T16:47:02.142Z,1018.94
2022-10-19T16:47:32.704Z,1018.96
2022-10-19T16:48:03.390Z,1018.94
2022-10-19T16:48:33.906Z,1018.95
2022-10-19T16:49:04.376Z,1018.95
2022-10-19T16:49:35.324Z,1018.95
2022-10-19T16:50:06.354Z,1018.94
2022-10-19T16:50:36.841Z,1018.94
2022-10-19T16:51:07.606Z,1018.93
2022-10-19T16:51:38.133Z,1018.94
2022-10-19T16:52:08.655Z,1018.92
2022-10-19T16:52:39.335Z,1018.92
2022-10-19T16:53:09.901Z,1018.94
2022-10-19T16:53:41.022Z,1018.94
2022-10-19T16:54:11.674Z,1018.94
2022-10-19T16:54:42.142Z,1018.93
2022-10-19T16:55:13.055Z,1018.95
2022-10-19T16:55:44.078Z,1018.95
2022-10-19T16:56:14.595Z,1018.94
2022-10-19T16:56:45.119Z,1018.97
2022-10-19T16:57:15.734Z,1018.96
2022-10-19T16:57:46.303Z,1018.95
2022-10-19T16:58:16.805Z,1018.95
2022-10-19T16:58:47.317Z,1018.94
2022-10-19T16:59:18.286Z,1018.92
2022-10-19T16:59:49.397Z,1018.92
2022-10-19T17:00:20.054Z,1018.91
2022-10-19T17:00:50.548Z,1018.91
2022-10-19T17:01:21.638Z,1018.87
2022-10-19T17:01:52.254Z,1018.86
2022-10-19T17:02:22.819Z,1018.84
2022-10-19T17:02:53.310Z,1018.82
2022-10-19T17:03:24.038Z,1018.80
2022-10-19T17:03:54.597Z,1018.80
2022-10-19T17:04:25.092Z,1018.79
2022-10-19T17:04:56.042Z,1018.77
2022-10-19T17:05:27.031Z,1018.77
2022-10-19T17:05:57.998Z,1018.78
2022-10-19T17:06:29.151Z,1018.78
2022-10-19T17:06:59.676Z,1018.78
2022-10-19T17:07:30.284Z,1018.80
2022-10-19T17:08:00.811Z,1018.82
2022-10-19T17:08:37.015Z,1018.82
2022-10-19T17:09:41.744Z,1018.81
2022-10-19T17:10:04.610Z,1018.82
2022-10-19T17:10:34.192Z,1018.82
2022-10-19T17:11:04.636Z,1018.83
2022-10-19T17:11:35.758Z,1018.81
2022-10-19T17:12:06.262Z,1018.84
2022-10-19T17:12:37.191Z,1018.84
2022-10-19T17:13:07.377Z,1018.83
2022-10-19T17:13:38.382Z,1018.83
2022-10-19T17:14:10.673Z,1018.84
2022-10-19T17:14:39.901Z,1018.83
2022-10-19T17:15:43.584Z,1018.87
2022-10-19T17:16:11.801Z,1018.88
2022-10-19T17:16:42.792Z,1018.87
2022-10-19T17:17:13.792Z,1018.86
2022-10-19T17:17:44.911Z,1018.86
2022-10-19T17:18:15.452Z,1018.87
2022-10-19T17:18:45.855Z,1018.88
2022-10-19T17:19:16.913Z,1018.88
2022-10-19T17:19:47.406Z,1018.90
2022-10-19T17:20:18.755Z,1018.89
2022-10-19T17:20:48.974Z,1018.89
2022-10-19T17:21:19.698Z,1018.88
2022-10-19T17:21:50.201Z,1018.89
2022-10-19T17:22:21.306Z,1018.90
2022-10-19T17:22:51.365Z,1018.92
2022-10-19T17:23:21.794Z,1018.91
2022-10-19T17:23:53.272Z,1018.92
2022-10-19T17:24:23.302Z,1018.91
2022-10-19T17:24:53.842Z,1018.93
2022-10-19T17:25:24.299Z,1018.94
2022-10-19T17:25:55.322Z,1018.95
2022-10-19T17:26:25.840Z,1018.94
2022-10-19T17:26:56.541Z,1018.95
2022-10-19T17:27:57.572Z,1018.95
2022-10-19T17:28:28.006Z,1018.96
2022-10-19T17:28:58.935Z,1018.95
2022-10-19T17:29:29.909Z,1018.96
2022-10-19T17:30:01.080Z,1018.97
2022-10-19T17:30:31.591Z,1018.97
2022-10-19T17:31:02.109Z,1018.97
2022-10-19T17:31:32.715Z,1018.96
2022-10-19T17:32:03.313Z,1018.96
2022-10-19T17:32:34.156Z,1018.97
2022-10-19T17:33:04.526Z,1018.97
2022-10-19T17:33:35.032Z,1018.98
2022-10-19T17:34:05.550Z,1018.98
2022-10-19T17:34:36.096Z,1018.98
2022-10-19T17:35:06.597Z,1018.98
2022-10-19T17:35:37.104Z,1019.00
2022-10-19T17:36:08.229Z,1019.01
2022-10-19T17:37:09.674Z,1019.03
2022-10-19T17:37:40.693Z,1019.02
2022-10-19T17:38:11.149Z,1019.04
2022-10-19T17:38:42.120Z,1019.05
2022-10-19T17:39:13.351Z,1019.07
2022-10-19T17:39:43.821Z,1019.08
2022-10-19T17:40:14.752Z,1019.09
2022-10-19T17:40:45.712Z,1019.10
2022-10-19T17:41:16.654Z,1019.10
2022-10-19T17:41:47.632Z,1019.12
2022-10-19T17:42:18.843Z,1019.14
2022-10-19T17:42:49.341Z,1019.14
2022-10-19T17:43:19.845Z,1019.14
2022-10-19T17:43:50.377Z,1019.14
2022-10-19T17:44:20.802Z,1019.13
2022-10-19T17:44:51.755Z,1019.10
2022-10-19T17:45:22.962Z,1019.11
2022-10-19T17:45:53.472Z,1019.09
2022-10-19T17:46:23.990Z,1019.09
2022-10-19T17:46:54.504Z,1019.09
2022-10-19T17:47:25.017Z,1019.12
2022-10-19T17:47:55.459Z,1019.10
2022-10-19T17:48:26.661Z,1019.11
2022-10-19T17:48:57.165Z,1019.11